createdAt,value
2022-07-26T00:04:04.414Z,10.23
2022-07-26T00:09:06.854Z,19.67
2022-07-26T00:14:09.576Z,9.10
2022-07-26T00:19:11.892Z,11.47
2022-07-26T00:24:14.213Z,11.20
2022-07-26T00:29:16.506Z,11.07
2022-07-26T00:34:18.864Z,11.03
2022-07-26T00:39:21.161Z,11.90
2022-07-26T00:44:23.469Z,9.53
2022-07-26T00:49:25.823Z,11.87
2022-07-26T00:54:28.565Z,12.53
2022-07-26T00:59:31.003Z,9.90
2022-07-26T01:04:33.590Z,10.45
2022-07-26T01:09:36.226Z,13.20
2022-07-26T01:14:38.562Z,13.50
2022-07-26T01:19:41.528Z,12.45
2022-07-26T01:24:43.887Z,11.20
2022-07-26T01:29:46.246Z,16.10
2022-07-26T01:34:48.664Z,12.43
2022-07-26T01:39:52.015Z,10.87
2022-07-26T01:44:54.274Z,11.20
2022-07-26T01:49:56.788Z,11.13
2022-07-26T01:54:59.478Z,14.03
2022-07-26T02:00:01.886Z,11.13
2022-07-26T02:05:09.720Z,9.90
2022-07-26T02:10:13.019Z,10.97
2022-07-26T02:15:17.338Z,12.13
2022-07-26T02:20:19.653Z,13.93
2022-07-26T02:25:21.956Z,12.37
2022-07-26T02:30:24.422Z,12.10
2022-07-26T02:35:26.719Z,12.30
2022-07-26T02:40:29.288Z,13.13
2022-07-26T02:45:31.616Z,23.53
2022-07-26T02:50:34.039Z,14.17
2022-07-26T02:55:36.265Z,13.70
2022-07-26T03:00:38.515Z,15.67
2022-07-26T03:05:41.016Z,14.40
2022-07-26T03:10:43.431Z,15.00
2022-07-26T03:15:45.893Z,16.27
2022-07-26T03:20:48.353Z,15.43
2022-07-26T03:25:50.699Z,14.17
2022-07-26T03:30:53.132Z,16.00
2022-07-26T03:35:55.472Z,16.23
2022-07-26T03:40:57.880Z,13.60
2022-07-26T03:46:00.155Z,15.83
2022-07-26T03:51:02.693Z,15.07
2022-07-26T03:56:23.454Z,12.85
2022-07-26T04:01:26.201Z,13.27
2022-07-26T04:06:29.255Z,13.67
2022-07-26T04:11:32.354Z,13.07
2022-07-26T04:16:36.956Z,12.93
2022-07-26T04:21:41.473Z,11.30
2022-07-26T04:26:43.766Z,13.55
2022-07-26T04:31:46.123Z,12.05
2022-07-26T04:36:48.522Z,11.77
2022-07-26T04:41:52.486Z,12.98
2022-07-26T04:46:54.778Z,12.88
2022-07-26T04:51:59.402Z,13.10
2022-07-26T04:57:01.914Z,14.05
2022-07-26T05:02:04.399Z,12.07
2022-07-26T05:07:06.732Z,13.70
2022-07-26T05:12:10.218Z,12.35
2022-07-26T05:17:12.584Z,15.80
2022-07-26T05:22:20.211Z,12.83
2022-07-26T05:27:22.633Z,13.00
2022-07-26T05:32:25.100Z,11.52
2022-07-26T05:37:27.667Z,11.18
2022-07-26T05:42:30.478Z,12.98
2022-07-26T05:47:33.012Z,10.75
2022-07-26T05:52:35.405Z,9.80
2022-07-26T05:57:41.756Z,9.63
2022-07-26T06:02:44.149Z,10.38
2022-07-26T06:07:46.497Z,11.15
2022-07-26T06:12:48.756Z,12.75
2022-07-26T06:17:51.020Z,11.13
2022-07-26T06:22:53.290Z,10.65
2022-07-26T06:27:55.795Z,12.07
2022-07-26T06:32:58.224Z,10.40
2022-07-26T06:38:00.589Z,9.23
2022-07-26T06:43:04.770Z,9.82
2022-07-26T06:48:07.542Z,8.88
2022-07-26T06:53:09.878Z,10.70
2022-07-26T06:58:12.283Z,11.00
2022-07-26T07:03:14.614Z,9.85
2022-07-26T07:08:17.241Z,9.85
2022-07-26T07:13:20.354Z,11.02
2022-07-26T07:18:22.720Z,9.32
2022-07-26T07:23:25.133Z,10.68
2022-07-26T07:28:27.726Z,9.98
2022-07-26T07:33:32.100Z,9.77
2022-07-26T07:38:39.222Z,10.45
2022-07-26T07:43:45.292Z,9.20
2022-07-26T07:48:47.859Z,10.13
2022-07-26T07:53:56.797Z,10.43
2022-07-26T07:58:59.844Z,11.57
2022-07-26T08:04:02.362Z,9.00
2022-07-26T08:09:06.379Z,10.30
2022-07-26T08:14:08.978Z,8.75
2022-07-26T08:19:12.201Z,9.20
2022-07-26T08:24:14.915Z,10.32
2022-07-26T08:29:20.792Z,9.95
2022-07-26T08:34:23.488Z,10.13
2022-07-26T08:39:25.866Z,12.38
2022-07-26T08:44:28.352Z,9.25
2022-07-26T08:49:30.686Z,10.25
2022-07-26T08:54:33.826Z,10.88
2022-07-26T08:59:36.155Z,10.95
2022-07-26T09:04:45.165Z,11.27
2022-07-26T09:10:11.199Z,11.20
2022-07-26T09:15:23.095Z,10.93
2022-07-26T09:20:28.637Z,9.15
2022-07-26T09:25:42.396Z,10.45
2022-07-26T09:30:55.478Z,9.05
2022-07-26T09:36:07.940Z,10.38
2022-07-26T09:41:20.756Z,11.18
2022-07-26T09:46:26.330Z,8.70
2022-07-26T09:51:55.208Z,9.88
2022-07-26T09:56:59.453Z,9.60
2022-07-26T10:02:01.971Z,9.75
2022-07-26T10:07:04.661Z,10.25
2022-07-26T10:12:09.257Z,9.60
2022-07-26T10:17:31.707Z,12.15
2022-07-26T10:22:50.714Z,9.80
2022-07-26T10:27:58.059Z,10.10
2022-07-26T10:33:14.008Z,10.13
2022-07-26T10:38:22.409Z,9.95
2022-07-26T10:43:41.782Z,10.50
2022-07-26T10:49:06.818Z,11.25
2022-07-26T10:54:11.511Z,11.40
2022-07-26T10:59:20.288Z,11.23
2022-07-26T11:04:35.350Z,10.63
2022-07-26T11:09:38.423Z,11.95
2022-07-26T11:14:44.967Z,10.95
2022-07-26T11:19:50.618Z,10.07
2022-07-26T11:24:52.970Z,11.27
2022-07-26T11:29:55.407Z,11.25
2022-07-26T11:35:05.002Z,10.00
2022-07-26T11:40:07.987Z,11.20
2022-07-26T11:45:13.902Z,10.63
2022-07-26T11:50:30.880Z,10.77
2022-07-26T11:55:33.295Z,14.05
2022-07-26T12:00:35.683Z,11.82
2022-07-26T12:05:38.224Z,13.80
2022-07-26T12:10:40.589Z,11.80
2022-07-26T12:15:51.381Z,11.43
2022-07-26T12:21:05.664Z,11.23
2022-07-26T12:26:26.580Z,12.80
2022-07-26T12:31:31.320Z,10.65
2022-07-26T12:36:34.297Z,17.33
2022-07-26T12:41:40.668Z,15.93
2022-07-26T12:46:45.282Z,13.95
2022-07-26T12:51:47.822Z,11.38
2022-07-26T12:56:50.325Z,15.55
2022-07-26T13:01:53.244Z,11.15
2022-07-26T13:06:55.625Z,10.63
2022-07-26T13:11:57.937Z,10.30
2022-07-26T13:17:01.086Z,10.32
2022-07-26T13:22:05.567Z,10.55
2022-07-26T13:27:10.500Z,13.30
2022-07-26T13:32:13.388Z,11.73
2022-07-26T13:37:15.811Z,11.25
2022-07-26T13:42:19.670Z,10.38
2022-07-26T13:47:22.081Z,10.88
2022-07-26T13:52:24.608Z,11.10
2022-07-26T13:57:47.030Z,11.18
2022-07-26T14:02:49.568Z,11.68
2022-07-26T14:07:52.196Z,11.57
2022-07-26T14:12:55.097Z,15.57
2022-07-26T14:17:57.467Z,11.88
2022-07-26T14:23:01.879Z,14.07
2022-07-26T14:38:50.387Z,16.88
2022-07-26T14:43:55.656Z,10.25
2022-07-26T14:48:58.337Z,9.25
2022-07-26T14:54:00.802Z,10.80
2022-07-26T14:59:03.231Z,10.48
2022-07-26T15:04:05.683Z,9.57
2022-07-26T15:09:08.047Z,11.65
2022-07-26T15:14:11.038Z,10.60
2022-07-26T15:19:13.761Z,10.68
2022-07-26T15:24:16.272Z,11.07
2022-07-26T15:29:18.729Z,11.00
2022-07-26T15:34:21.433Z,10.90
2022-07-26T15:39:23.938Z,11.00
2022-07-26T15:44:26.475Z,12.10
2022-07-26T15:49:28.923Z,13.20
2022-07-26T15:54:31.491Z,12.60
2022-07-26T15:59:33.833Z,11.57
2022-07-26T16:04:36.255Z,13.35
2022-07-26T16:09:38.582Z,10.95
2022-07-26T16:14:41.184Z,11.77
2022-07-26T16:19:43.658Z,10.93
2022-07-26T16:24:46.140Z,12.07
2022-07-26T16:29:52.101Z,13.13
2022-07-26T16:34:54.983Z,11.75
2022-07-26T16:39:57.408Z,16.50
2022-07-26T16:44:59.788Z,13.68
2022-07-26T16:50:02.718Z,24.45
2022-07-26T16:55:11.032Z,12.88
2022-07-26T17:00:16.287Z,14.63
2022-07-26T17:05:19.891Z,18.27
2022-07-26T17:10:22.457Z,14.63
2022-07-26T17:15:24.871Z,11.55
2022-07-26T17:20:27.442Z,24.02
2022-07-26T17:25:29.972Z,26.77
2022-07-26T17:30:32.666Z,13.98
2022-07-26T17:35:35.141Z,13.48
2022-07-26T17:40:38.569Z,12.07
2022-07-26T17:45:41.575Z,14.00
2022-07-26T17:50:44.143Z,14.52
2022-07-26T17:55:46.564Z,25.65
2022-07-26T18:00:49.388Z,18.33
2022-07-26T18:05:52.324Z,16.35
2022-07-26T18:10:55.928Z,19.40
2022-07-26T18:16:01.787Z,20.95
2022-07-26T18:26:09.510Z,17.33
2022-07-26T18:31:12.014Z,21.48
2022-07-26T18:36:14.396Z,22.13
2022-07-26T18:41:17.293Z,16.42
2022-07-26T18:46:19.752Z,15.82
2022-07-26T18:51:22.450Z,13.75
2022-07-26T18:56:29.368Z,14.57
2022-07-26T19:01:32.341Z,18.38
2022-07-26T19:06:38.614Z,17.70
2022-07-26T19:11:41.096Z,16.95
2022-07-26T19:16:48.941Z,16.67
2022-07-26T19:21:54.261Z,20.02
2022-07-26T19:26:56.761Z,23.60
2022-07-26T19:32:00.776Z,22.90
2022-07-26T19:37:03.709Z,20.33
2022-07-26T19:42:06.169Z,15.95
2022-07-26T19:47:08.797Z,19.27
2022-07-26T19:52:11.800Z,21.20
2022-07-26T19:57:14.547Z,24.80
2022-07-26T20:02:18.279Z,29.30
2022-07-26T20:07:20.744Z,34.08
2022-07-26T20:12:23.760Z,29.85
2022-07-26T20:17:26.519Z,22.52
2022-07-26T20:22:29.155Z,21.27
2022-07-26T20:27:31.641Z,24.33
2022-07-26T20:32:34.123Z,22.63
2022-07-26T20:37:40.081Z,28.70
2022-07-26T20:42:44.231Z,23.77
2022-07-26T20:47:53.358Z,21.05
2022-07-26T20:52:55.820Z,22.63
2022-07-26T20:57:58.703Z,21.27
2022-07-26T21:03:01.146Z,23.92
2022-07-26T21:08:03.626Z,21.35
2022-07-26T21:13:06.128Z,19.15
2022-07-26T21:18:09.326Z,23.08
2022-07-26T21:23:17.782Z,21.38
2022-07-26T21:28:21.716Z,22.05
2022-07-26T21:33:26.936Z,19.85
2022-07-26T21:38:34.628Z,20.25
2022-07-26T21:43:37.052Z,20.77
2022-07-26T21:48:39.629Z,19.60
2022-07-26T21:53:43.770Z,20.30
2022-07-26T21:58:46.889Z,20.25
2022-07-26T22:03:49.469Z,19.48
2022-07-26T22:08:51.866Z,20.23
2022-07-26T22:13:54.274Z,26.80
2022-07-26T22:18:56.632Z,24.25
2022-07-26T22:23:58.983Z,22.83
2022-07-26T22:29:01.358Z,21.27
2022-07-26T22:34:03.816Z,19.40
2022-07-26T22:39:06.167Z,21.45
2022-07-26T22:44:11.527Z,18.83
2022-07-26T22:49:14.222Z,19.33
2022-07-26T22:54:20.562Z,21.15
2022-07-26T22:59:25.551Z,20.90
2022-07-26T23:04:27.952Z,21.08
2022-07-26T23:09:30.375Z,20.85
2022-07-26T23:14:32.837Z,18.77
2022-07-26T23:19:35.109Z,22.20
2022-07-26T23:24:37.439Z,22.10
2022-07-26T23:29:42.892Z,19.15
2022-07-26T23:34:45.324Z,17.17
2022-07-26T23:39:47.648Z,21.17
2022-07-26T23:44:49.951Z,18.33
2022-07-26T23:49:52.853Z,17.25
2022-07-26T23:54:55.282Z,16.80
2022-07-26T23:59:57.721Z,19.20
